sensor_id;sensor_type;location;lat;lon;timestamp;P1;durP1;ratioP1;P2;durP2;ratioP2
22660;SDS011;11497;52.222;21.246;2022-08-21T00:01:52;8.32;;;6.55;;
22660;SDS011;11497;52.222;21.246;2022-08-21T00:04:21;10.52;;;6.95;;
22660;SDS011;11497;52.222;21.246;2022-08-21T00:06:56;14.27;;;6.88;;
22660;SDS011;11497;52.222;21.246;2022-08-21T00:09:25;8.80;;;6.60;;
22660;SDS011;11497;52.222;21.246;2022-08-21T00:11:52;9.68;;;6.60;;
22660;SDS011;11497;52.222;21.246;2022-08-21T00:14:20;11.73;;;6.80;;
22660;SDS011;11497;52.222;21.246;2022-08-21T00:16:48;11.27;;;6.88;;
22660;SDS011;11497;52.222;21.246;2022-08-21T00:19:17;10.20;;;6.63;;
22660;SDS011;11497;52.222;21.246;2022-08-21T00:21:47;9.77;;;6.80;;
22660;SDS011;11497;52.222;21.246;2022-08-21T00:24:14;9.40;;;6.45;;
22660;SDS011;11497;52.222;21.246;2022-08-21T00:26:42;9.85;;;6.55;;
22660;SDS011;11497;52.222;21.246;2022-08-21T00:29:10;8.35;;;6.38;;
22660;SDS011;11497;52.222;21.246;2022-08-21T00:31:38;8.35;;;6.53;;
22660;SDS011;11497;52.222;21.246;2022-08-21T00:34:06;9.57;;;6.97;;
22660;SDS011;11497;52.222;21.246;2022-08-21T00:36:35;7.75;;;6.95;;
22660;SDS011;11497;52.222;21.246;2022-08-21T00:39:04;9.85;;;6.82;;
22660;SDS011;11497;52.222;21.246;2022-08-21T00:41:34;7.85;;;6.82;;
22660;SDS011;11497;52.222;21.246;2022-08-21T00:44:05;10.18;;;7.32;;
22660;SDS011;11497;52.222;21.246;2022-08-21T00:46:35;9.98;;;6.90;;
22660;SDS011;11497;52.222;21.246;2022-08-21T00:49:04;9.20;;;7.00;;
22660;SDS011;11497;52.222;21.246;2022-08-21T00:51:46;13.90;;;7.00;;
22660;SDS011;11497;52.222;21.246;2022-08-21T00:54:19;8.25;;;6.72;;
22660;SDS011;11497;52.222;21.246;2022-08-21T00:56:53;9.67;;;6.90;;
22660;SDS011;11497;52.222;21.246;2022-08-21T00:59:31;8.85;;;6.53;;
22660;SDS011;11497;52.222;21.246;2022-08-21T01:02:04;10.40;;;7.00;;
22660;SDS011;11497;52.222;21.246;2022-08-21T01:04:34;13.77;;;7.18;;
22660;SDS011;11497;52.222;21.246;2022-08-21T01:07:01;10.57;;;7.10;;
22660;SDS011;11497;52.222;21.246;2022-08-21T01:09:30;11.00;;;6.93;;
22660;SDS011;11497;52.222;21.246;2022-08-21T01:11:58;9.55;;;6.85;;
22660;SDS011;11497;52.222;21.246;2022-08-21T01:14:27;7.72;;;6.70;;
22660;SDS011;11497;52.222;21.246;2022-08-21T01:16:55;12.00;;;6.53;;
22660;SDS011;11497;52.222;21.246;2022-08-21T01:19:24;9.30;;;6.78;;
22660;SDS011;11497;52.222;21.246;2022-08-21T01:21:53;10.65;;;7.32;;
22660;SDS011;11497;52.222;21.246;2022-08-21T01:24:21;10.68;;;7.40;;
22660;SDS011;11497;52.222;21.246;2022-08-21T01:26:49;12.25;;;7.22;;
22660;SDS011;11497;52.222;21.246;2022-08-21T01:31:58;13.32;;;7.10;;
22660;SDS011;11497;52.222;21.246;2022-08-21T01:34:29;10.43;;;7.03;;
22660;SDS011;11497;52.222;21.246;2022-08-21T01:36:58;9.80;;;6.72;;
22660;SDS011;11497;52.222;21.246;2022-08-21T01:39:26;9.15;;;7.00;;
22660;SDS011;11497;52.222;21.246;2022-08-21T01:41:53;9.70;;;6.63;;
22660;SDS011;11497;52.222;21.246;2022-08-21T01:44:22;8.90;;;7.13;;
22660;SDS011;11497;52.222;21.246;2022-08-21T01:46:50;9.65;;;7.00;;
22660;SDS011;11497;52.222;21.246;2022-08-21T01:49:19;13.50;;;7.60;;
22660;SDS011;11497;52.222;21.246;2022-08-21T01:51:47;10.38;;;6.97;;
22660;SDS011;11497;52.222;21.246;2022-08-21T01:54:15;10.35;;;7.30;;
22660;SDS011;11497;52.222;21.246;2022-08-21T01:56:44;9.65;;;6.47;;
22660;SDS011;11497;52.222;21.246;2022-08-21T01:59:14;7.50;;;6.70;;
22660;SDS011;11497;52.222;21.246;2022-08-21T02:01:42;8.70;;;6.57;;
22660;SDS011;11497;52.222;21.246;2022-08-21T02:04:10;9.52;;;7.30;;
22660;SDS011;11497;52.222;21.246;2022-08-21T02:06:39;9.23;;;7.38;;
22660;SDS011;11497;52.222;21.246;2022-08-21T02:09:07;7.93;;;6.40;;
22660;SDS011;11497;52.222;21.246;2022-08-21T02:11:37;9.10;;;6.63;;
22660;SDS011;11497;52.222;21.246;2022-08-21T02:14:08;11.95;;;6.95;;
22660;SDS011;11497;52.222;21.246;2022-08-21T02:16:38;12.23;;;7.40;;
22660;SDS011;11497;52.222;21.246;2022-08-21T02:19:12;9.00;;;7.45;;
22660;SDS011;11497;52.222;21.246;2022-08-21T02:21:42;9.00;;;6.70;;
22660;SDS011;11497;52.222;21.246;2022-08-21T02:24:10;9.63;;;6.85;;
22660;SDS011;11497;52.222;21.246;2022-08-21T02:26:39;11.82;;;7.13;;
22660;SDS011;11497;52.222;21.246;2022-08-21T02:29:06;11.23;;;7.28;;
22660;SDS011;11497;52.222;21.246;2022-08-21T02:31:34;8.38;;;7.25;;
22660;SDS011;11497;52.222;21.246;2022-08-21T02:34:03;10.18;;;7.70;;
22660;SDS011;11497;52.222;21.246;2022-08-21T02:36:31;9.40;;;7.68;;
22660;SDS011;11497;52.222;21.246;2022-08-21T02:38:58;9.18;;;8.00;;
22660;SDS011;11497;52.222;21.246;2022-08-21T02:41:27;8.15;;;7.35;;
22660;SDS011;11497;52.222;21.246;2022-08-21T02:43:55;9.07;;;7.75;;
22660;SDS011;11497;52.222;21.246;2022-08-21T02:46:22;9.75;;;7.35;;
22660;SDS011;11497;52.222;21.246;2022-08-21T02:48:50;14.65;;;7.82;;
22660;SDS011;11497;52.222;21.246;2022-08-21T02:51:18;9.07;;;7.72;;
22660;SDS011;11497;52.222;21.246;2022-08-21T02:53:47;7.93;;;7.22;;
22660;SDS011;11497;52.222;21.246;2022-08-21T02:56:16;12.27;;;8.05;;
22660;SDS011;11497;52.222;21.246;2022-08-21T02:58:48;11.00;;;7.85;;
22660;SDS011;11497;52.222;21.246;2022-08-21T03:01:19;10.90;;;7.53;;
22660;SDS011;11497;52.222;21.246;2022-08-21T03:03:48;7.93;;;6.72;;
22660;SDS011;11497;52.222;21.246;2022-08-21T03:06:17;10.40;;;7.50;;
22660;SDS011;11497;52.222;21.246;2022-08-21T03:08:48;12.98;;;8.27;;
22660;SDS011;11497;52.222;21.246;2022-08-21T03:11:17;9.38;;;7.35;;
22660;SDS011;11497;52.222;21.246;2022-08-21T03:13:47;9.38;;;7.55;;
22660;SDS011;11497;52.222;21.246;2022-08-21T03:16:15;11.52;;;7.85;;
22660;SDS011;11497;52.222;21.246;2022-08-21T03:18:43;9.90;;;8.13;;
22660;SDS011;11497;52.222;21.246;2022-08-21T03:21:10;10.25;;;7.47;;
22660;SDS011;11497;52.222;21.246;2022-08-21T03:23:39;11.10;;;7.70;;
22660;SDS011;11497;52.222;21.246;2022-08-21T03:26:09;11.95;;;7.90;;
22660;SDS011;11497;52.222;21.246;2022-08-21T03:28:38;9.73;;;7.55;;
22660;SDS011;11497;52.222;21.246;2022-08-21T03:31:06;8.27;;;7.43;;
22660;SDS011;11497;52.222;21.246;2022-08-21T03:33:35;8.98;;;7.20;;
22660;SDS011;11497;52.222;21.246;2022-08-21T03:36:04;8.77;;;7.25;;
22660;SDS011;11497;52.222;21.246;2022-08-21T03:38:34;9.65;;;7.50;;
22660;SDS011;11497;52.222;21.246;2022-08-21T03:41:04;10.57;;;7.70;;
22660;SDS011;11497;52.222;21.246;2022-08-21T03:43:34;10.32;;;7.32;;
22660;SDS011;11497;52.222;21.246;2022-08-21T03:46:02;13.07;;;7.85;;
22660;SDS011;11497;52.222;21.246;2022-08-21T03:48:33;9.13;;;7.88;;
22660;SDS011;11497;52.222;21.246;2022-08-21T03:51:02;8.85;;;7.88;;
22660;SDS011;11497;52.222;21.246;2022-08-21T03:53:30;9.90;;;7.63;;
22660;SDS011;11497;52.222;21.246;2022-08-21T03:55:58;10.13;;;7.22;;
22660;SDS011;11497;52.222;21.246;2022-08-21T03:58:27;9.50;;;8.20;;
22660;SDS011;11497;52.222;21.246;2022-08-21T04:00:56;9.88;;;8.38;;
22660;SDS011;11497;52.222;21.246;2022-08-21T04:03:26;9.25;;;7.65;;
22660;SDS011;11497;52.222;21.246;2022-08-21T04:05:54;10.73;;;7.70;;
22660;SDS011;11497;52.222;21.246;2022-08-21T04:08:22;9.38;;;7.93;;
22660;SDS011;11497;52.222;21.246;2022-08-21T04:10:51;11.50;;;8.30;;
22660;SDS011;11497;52.222;21.246;2022-08-21T04:13:21;9.13;;;7.32;;
22660;SDS011;11497;52.222;21.246;2022-08-21T04:15:49;9.88;;;7.25;;
22660;SDS011;11497;52.222;21.246;2022-08-21T04:18:17;12.82;;;7.30;;
22660;SDS011;11497;52.222;21.246;2022-08-21T04:20:46;10.27;;;7.45;;
22660;SDS011;11497;52.222;21.246;2022-08-21T04:23:18;8.90;;;6.97;;
22660;SDS011;11497;52.222;21.246;2022-08-21T04:25:50;9.10;;;7.65;;
22660;SDS011;11497;52.222;21.246;2022-08-21T04:28:20;12.52;;;7.25;;
22660;SDS011;11497;52.222;21.246;2022-08-21T04:30:54;10.93;;;7.57;;
22660;SDS011;11497;52.222;21.246;2022-08-21T04:33:23;11.27;;;6.88;;
22660;SDS011;11497;52.222;21.246;2022-08-21T04:35:51;9.43;;;7.07;;
22660;SDS011;11497;52.222;21.246;2022-08-21T04:38:19;9.68;;;7.00;;
22660;SDS011;11497;52.222;21.246;2022-08-21T04:40:48;10.00;;;7.03;;
22660;SDS011;11497;52.222;21.246;2022-08-21T04:43:17;9.20;;;7.03;;
22660;SDS011;11497;52.222;21.246;2022-08-21T04:45:46;12.50;;;7.40;;
22660;SDS011;11497;52.222;21.246;2022-08-21T04:48:17;8.13;;;6.78;;
22660;SDS011;11497;52.222;21.246;2022-08-21T04:53:18;9.63;;;6.95;;
22660;SDS011;11497;52.222;21.246;2022-08-21T04:55:50;9.93;;;7.43;;
22660;SDS011;11497;52.222;21.246;2022-08-21T04:58:20;8.23;;;6.55;;
22660;SDS011;11497;52.222;21.246;2022-08-21T05:00:52;8.00;;;6.78;;
22660;SDS011;11497;52.222;21.246;2022-08-21T05:03:24;8.77;;;6.35;;
22660;SDS011;11497;52.222;21.246;2022-08-21T05:05:52;9.15;;;6.55;;
22660;SDS011;11497;52.222;21.246;2022-08-21T05:08:21;8.23;;;6.53;;
22660;SDS011;11497;52.222;21.246;2022-08-21T05:10:52;10.45;;;6.35;;
22660;SDS011;11497;52.222;21.246;2022-08-21T05:13:26;7.20;;;6.10;;
22660;SDS011;11497;52.222;21.246;2022-08-21T05:15:54;7.80;;;6.30;;
22660;SDS011;11497;52.222;21.246;2022-08-21T05:18:22;7.90;;;5.88;;
22660;SDS011;11497;52.222;21.246;2022-08-21T05:20:51;9.70;;;6.50;;
22660;SDS011;11497;52.222;21.246;2022-08-21T05:23:18;9.27;;;6.03;;
22660;SDS011;11497;52.222;21.246;2022-08-21T05:25:46;8.25;;;6.05;;
22660;SDS011;11497;52.222;21.246;2022-08-21T05:28:14;7.78;;;6.03;;
22660;SDS011;11497;52.222;21.246;2022-08-21T05:30:42;9.15;;;6.43;;
22660;SDS011;11497;52.222;21.246;2022-08-21T05:33:10;7.68;;;5.65;;
22660;SDS011;11497;52.222;21.246;2022-08-21T05:35:38;6.43;;;5.65;;
22660;SDS011;11497;52.222;21.246;2022-08-21T05:38:06;10.52;;;5.65;;
22660;SDS011;11497;52.222;21.246;2022-08-21T05:40:43;7.15;;;6.20;;
22660;SDS011;11497;52.222;21.246;2022-08-21T05:43:12;8.05;;;5.75;;
22660;SDS011;11497;52.222;21.246;2022-08-21T05:45:40;8.15;;;5.80;;
22660;SDS011;11497;52.222;21.246;2022-08-21T05:48:12;10.32;;;5.82;;
22660;SDS011;11497;52.222;21.246;2022-08-21T05:50:50;9.05;;;6.32;;
22660;SDS011;11497;52.222;21.246;2022-08-21T05:53:19;7.72;;;6.10;;
22660;SDS011;11497;52.222;21.246;2022-08-21T05:55:49;9.65;;;5.93;;
22660;SDS011;11497;52.222;21.246;2022-08-21T05:58:19;10.40;;;5.80;;
22660;SDS011;11497;52.222;21.246;2022-08-21T06:00:50;7.50;;;5.35;;
22660;SDS011;11497;52.222;21.246;2022-08-21T06:03:23;8.15;;;5.88;;
22660;SDS011;11497;52.222;21.246;2022-08-21T06:05:54;11.65;;;6.20;;
22660;SDS011;11497;52.222;21.246;2022-08-21T06:08:23;6.75;;;6.10;;
22660;SDS011;11497;52.222;21.246;2022-08-21T06:10:51;6.57;;;5.30;;
22660;SDS011;11497;52.222;21.246;2022-08-21T06:13:21;7.97;;;5.72;;
22660;SDS011;11497;52.222;21.246;2022-08-21T06:15:59;7.85;;;5.40;;
22660;SDS011;11497;52.222;21.246;2022-08-21T06:18:43;8.27;;;6.10;;
22660;SDS011;11497;52.222;21.246;2022-08-21T06:21:11;8.88;;;5.70;;
22660;SDS011;11497;52.222;21.246;2022-08-21T06:23:40;8.23;;;5.70;;
22660;SDS011;11497;52.222;21.246;2022-08-21T06:26:10;7.45;;;5.75;;
22660;SDS011;11497;52.222;21.246;2022-08-21T06:28:40;7.70;;;5.30;;
22660;SDS011;11497;52.222;21.246;2022-08-21T06:31:14;8.38;;;6.15;;
22660;SDS011;11497;52.222;21.246;2022-08-21T06:33:44;10.15;;;5.70;;
22660;SDS011;11497;52.222;21.246;2022-08-21T06:36:12;9.07;;;5.82;;
22660;SDS011;11497;52.222;21.246;2022-08-21T06:38:40;8.57;;;5.65;;
22660;SDS011;11497;52.222;21.246;2022-08-21T06:41:18;11.15;;;6.63;;
22660;SDS011;11497;52.222;21.246;2022-08-21T06:43:52;10.75;;;5.70;;
22660;SDS011;11497;52.222;21.246;2022-08-21T06:46:21;9.65;;;6.00;;
22660;SDS011;11497;52.222;21.246;2022-08-21T06:48:50;9.48;;;5.65;;
22660;SDS011;11497;52.222;21.246;2022-08-21T06:51:17;9.23;;;5.95;;
22660;SDS011;11497;52.222;21.246;2022-08-21T06:53:45;6.45;;;5.32;;
22660;SDS011;11497;52.222;21.246;2022-08-21T06:56:13;8.23;;;5.93;;
22660;SDS011;11497;52.222;21.246;2022-08-21T06:58:41;9.13;;;5.53;;
22660;SDS011;11497;52.222;21.246;2022-08-21T07:01:10;8.90;;;5.78;;
22660;SDS011;11497;52.222;21.246;2022-08-21T07:03:39;8.38;;;5.70;;
22660;SDS011;11497;52.222;21.246;2022-08-21T07:06:10;7.43;;;5.93;;
22660;SDS011;11497;52.222;21.246;2022-08-21T07:08:38;10.27;;;5.78;;
22660;SDS011;11497;52.222;21.246;2022-08-21T07:11:17;8.32;;;5.55;;
22660;SDS011;11497;52.222;21.246;2022-08-21T07:13:48;9.45;;;5.82;;
22660;SDS011;11497;52.222;21.246;2022-08-21T07:16:18;8.32;;;5.65;;
22660;SDS011;11497;52.222;21.246;2022-08-21T07:18:47;7.85;;;6.03;;
22660;SDS011;11497;52.222;21.246;2022-08-21T07:21:15;11.25;;;5.60;;
22660;SDS011;11497;52.222;21.246;2022-08-21T07:23:49;7.68;;;5.68;;
22660;SDS011;11497;52.222;21.246;2022-08-21T07:26:19;7.10;;;5.90;;
22660;SDS011;11497;52.222;21.246;2022-08-21T07:28:49;9.63;;;5.68;;
22660;SDS011;11497;52.222;21.246;2022-08-21T07:31:18;6.20;;;5.18;;
22660;SDS011;11497;52.222;21.246;2022-08-21T07:33:48;6.65;;;5.45;;
22660;SDS011;11497;52.222;21.246;2022-08-21T07:36:16;7.53;;;5.85;;
22660;SDS011;11497;52.222;21.246;2022-08-21T07:38:44;7.82;;;5.40;;
22660;SDS011;11497;52.222;21.246;2022-08-21T07:41:14;9.70;;;5.45;;
22660;SDS011;11497;52.222;21.246;2022-08-21T07:43:48;7.82;;;5.25;;
22660;SDS011;11497;52.222;21.246;2022-08-21T07:46:19;10.77;;;5.40;;
22660;SDS011;11497;52.222;21.246;2022-08-21T07:48:47;7.72;;;5.32;;
22660;SDS011;11497;52.222;21.246;2022-08-21T07:51:15;6.80;;;4.55;;
22660;SDS011;11497;52.222;21.246;2022-08-21T07:53:48;5.38;;;4.80;;
22660;SDS011;11497;52.222;21.246;2022-08-21T07:56:18;6.40;;;4.88;;
22660;SDS011;11497;52.222;21.246;2022-08-21T07:58:46;7.00;;;4.70;;
22660;SDS011;11497;52.222;21.246;2022-08-21T08:01:15;6.20;;;4.47;;
22660;SDS011;11497;52.222;21.246;2022-08-21T08:03:44;7.07;;;5.03;;
22660;SDS011;11497;52.222;21.246;2022-08-21T08:06:13;7.50;;;4.45;;
22660;SDS011;11497;52.222;21.246;2022-08-21T08:08:43;7.18;;;4.65;;
22660;SDS011;11497;52.222;21.246;2022-08-21T08:11:11;5.15;;;4.38;;
22660;SDS011;11497;52.222;21.246;2022-08-21T08:13:42;6.10;;;4.65;;
22660;SDS011;11497;52.222;21.246;2022-08-21T08:16:13;4.78;;;4.20;;
22660;SDS011;11497;52.222;21.246;2022-08-21T08:18:42;7.00;;;4.80;;
22660;SDS011;11497;52.222;21.246;2022-08-21T08:21:11;5.80;;;4.32;;
22660;SDS011;11497;52.222;21.246;2022-08-21T08:23:39;6.15;;;4.43;;
22660;SDS011;11497;52.222;21.246;2022-08-21T08:26:07;6.47;;;4.10;;
22660;SDS011;11497;52.222;21.246;2022-08-21T08:28:35;4.45;;;3.97;;
22660;SDS011;11497;52.222;21.246;2022-08-21T08:31:03;7.38;;;4.38;;
22660;SDS011;11497;52.222;21.246;2022-08-21T08:33:31;5.38;;;4.10;;
22660;SDS011;11497;52.222;21.246;2022-08-21T08:36:00;6.22;;;3.95;;
22660;SDS011;11497;52.222;21.246;2022-08-21T08:38:33;5.90;;;3.97;;
22660;SDS011;11497;52.222;21.246;2022-08-21T08:41:22;4.30;;;3.78;;
22660;SDS011;11497;52.222;21.246;2022-08-21T08:43:58;6.22;;;3.85;;
22660;SDS011;11497;52.222;21.246;2022-08-21T08:46:33;4.80;;;3.80;;
22660;SDS011;11497;52.222;21.246;2022-08-21T08:49:16;6.97;;;3.70;;
22660;SDS011;11497;52.222;21.246;2022-08-21T08:57:18;5.50;;;4.20;;
22660;SDS011;11497;52.222;21.246;2022-08-21T08:59:50;6.30;;;4.23;;
22660;SDS011;11497;52.222;21.246;2022-08-21T09:02:20;6.38;;;3.47;;
22660;SDS011;11497;52.222;21.246;2022-08-21T09:04:52;6.22;;;3.55;;
22660;SDS011;11497;52.222;21.246;2022-08-21T09:07:29;3.65;;;3.00;;
22660;SDS011;11497;52.222;21.246;2022-08-21T09:10:11;3.95;;;3.17;;
22660;SDS011;11497;52.222;21.246;2022-08-21T09:18:41;5.10;;;3.35;;
22660;SDS011;11497;52.222;21.246;2022-08-21T09:21:21;7.88;;;3.38;;
22660;SDS011;11497;52.222;21.246;2022-08-21T09:29:23;4.50;;;3.50;;
22660;SDS011;11497;52.222;21.246;2022-08-21T09:31:56;4.85;;;3.38;;
22660;SDS011;11497;52.222;21.246;2022-08-21T09:34:28;6.47;;;3.65;;
22660;SDS011;11497;52.222;21.246;2022-08-21T09:36:57;3.40;;;3.10;;
22660;SDS011;11497;52.222;21.246;2022-08-21T09:39:27;6.25;;;3.53;;
22660;SDS011;11497;52.222;21.246;2022-08-21T09:42:07;4.50;;;3.50;;
22660;SDS011;11497;52.222;21.246;2022-08-21T09:44:38;3.88;;;3.50;;
22660;SDS011;11497;52.222;21.246;2022-08-21T09:47:10;3.50;;;3.20;;
22660;SDS011;11497;52.222;21.246;2022-08-21T09:49:40;4.13;;;2.92;;
22660;SDS011;11497;52.222;21.246;2022-08-21T09:52:21;4.57;;;3.50;;
22660;SDS011;11497;52.222;21.246;2022-08-21T09:54:52;6.80;;;3.40;;
22660;SDS011;11497;52.222;21.246;2022-08-21T09:57:27;9.07;;;3.75;;
22660;SDS011;11497;52.222;21.246;2022-08-21T10:00:26;8.27;;;3.75;;
22660;SDS011;11497;52.222;21.246;2022-08-21T10:03:20;5.82;;;3.47;;
22660;SDS011;11497;52.222;21.246;2022-08-21T10:08:35;3.78;;;3.47;;
22660;SDS011;11497;52.222;21.246;2022-08-21T10:11:07;3.92;;;3.30;;
22660;SDS011;11497;52.222;21.246;2022-08-21T10:13:50;3.95;;;3.33;;
22660;SDS011;11497;52.222;21.246;2022-08-21T10:25:07;4.25;;;3.65;;
22660;SDS011;11497;52.222;21.246;2022-08-21T10:30:52;4.13;;;3.15;;
22660;SDS011;11497;52.222;21.246;2022-08-21T10:33:53;5.00;;;3.40;;
22660;SDS011;11497;52.222;21.246;2022-08-21T10:36:37;4.15;;;3.38;;
22660;SDS011;11497;52.222;21.246;2022-08-21T10:43:03;4.50;;;3.72;;
22660;SDS011;11497;52.222;21.246;2022-08-21T10:48:35;5.72;;;3.47;;
22660;SDS011;11497;52.222;21.246;2022-08-21T10:54:13;6.35;;;3.80;;
22660;SDS011;11497;52.222;21.246;2022-08-21T10:56:56;6.93;;;4.07;;
22660;SDS011;11497;52.222;21.246;2022-08-21T11:02:26;6.63;;;3.90;;
22660;SDS011;11497;52.222;21.246;2022-08-21T11:07:43;5.32;;;4.03;;
22660;SDS011;11497;52.222;21.246;2022-08-21T11:10:25;7.45;;;3.60;;
22660;SDS011;11497;52.222;21.246;2022-08-21T11:13:26;4.07;;;3.70;;
22660;SDS011;11497;52.222;21.246;2022-08-21T11:16:02;5.32;;;3.63;;
22660;SDS011;11497;52.222;21.246;2022-08-21T11:18:53;12.63;;;5.47;;
22660;SDS011;11497;52.222;21.246;2022-08-21T11:21:41;21.27;;;6.32;;
22660;SDS011;11497;52.222;21.246;2022-08-21T11:29:56;7.53;;;4.13;;
22660;SDS011;11497;52.222;21.246;2022-08-21T11:32:45;20.67;;;14.68;;
22660;SDS011;11497;52.222;21.246;2022-08-21T11:38:13;4.65;;;3.95;;
22660;SDS011;11497;52.222;21.246;2022-08-21T11:41:22;4.43;;;3.90;;
22660;SDS011;11497;52.222;21.246;2022-08-21T11:54:51;4.22;;;3.55;;
22660;SDS011;11497;52.222;21.246;2022-08-21T12:00:32;5.63;;;3.67;;
22660;SDS011;11497;52.222;21.246;2022-08-21T12:06:26;4.78;;;3.40;;
22660;SDS011;11497;52.222;21.246;2022-08-21T12:14:42;4.28;;;3.80;;
22660;SDS011;11497;52.222;21.246;2022-08-21T12:17:20;4.00;;;3.28;;
22660;SDS011;11497;52.222;21.246;2022-08-21T12:20:01;5.35;;;3.50;;
22660;SDS011;11497;52.222;21.246;2022-08-21T12:22:47;4.20;;;3.60;;
22660;SDS011;11497;52.222;21.246;2022-08-21T12:26:32;5.80;;;3.45;;
22660;SDS011;11497;52.222;21.246;2022-08-21T12:28:49;3.67;;;3.30;;
22660;SDS011;11497;52.222;21.246;2022-08-21T12:31:18;4.70;;;3.65;;
22660;SDS011;11497;52.222;21.246;2022-08-21T12:33:55;4.40;;;3.70;;
22660;SDS011;11497;52.222;21.246;2022-08-21T12:36:33;4.43;;;3.38;;
22660;SDS011;11497;52.222;21.246;2022-08-21T12:39:13;6.45;;;3.70;;
22660;SDS011;11497;52.222;21.246;2022-08-21T12:41:53;3.85;;;3.53;;
22660;SDS011;11497;52.222;21.246;2022-08-21T12:44:30;4.20;;;3.45;;
22660;SDS011;11497;52.222;21.246;2022-08-21T12:47:06;5.57;;;3.65;;
22660;SDS011;11497;52.222;21.246;2022-08-21T12:49:51;4.95;;;3.92;;
22660;SDS011;11497;52.222;21.246;2022-08-21T12:52:40;3.58;;;3.28;;
22660;SDS011;11497;52.222;21.246;2022-08-21T12:55:12;4.60;;;3.50;;
22660;SDS011;11497;52.222;21.246;2022-08-21T12:57:51;7.15;;;3.92;;
22660;SDS011;11497;52.222;21.246;2022-08-21T13:00:21;6.57;;;3.90;;
22660;SDS011;11497;52.222;21.246;2022-08-21T13:02:52;4.43;;;3.65;;
22660;SDS011;11497;52.222;21.246;2022-08-21T13:08:03;5.15;;;3.78;;
22660;SDS011;11497;52.222;21.246;2022-08-21T13:10:33;6.68;;;3.38;;
22660;SDS011;11497;52.222;21.246;2022-08-21T13:13:04;4.85;;;3.80;;
22660;SDS011;11497;52.222;21.246;2022-08-21T13:15:57;4.53;;;3.80;;
22660;SDS011;11497;52.222;21.246;2022-08-21T13:18:31;4.95;;;3.25;;
22660;SDS011;11497;52.222;21.246;2022-08-21T13:21:05;7.65;;;3.88;;
22660;SDS011;11497;52.222;21.246;2022-08-21T13:23:37;4.72;;;3.13;;
22660;SDS011;11497;52.222;21.246;2022-08-21T13:26:39;7.07;;;3.72;;
22660;SDS011;11497;52.222;21.246;2022-08-21T13:29:06;6.35;;;3.90;;
22660;SDS011;11497;52.222;21.246;2022-08-21T13:31:39;4.05;;;3.50;;
22660;SDS011;11497;52.222;21.246;2022-08-21T13:34:12;6.28;;;3.70;;
22660;SDS011;11497;52.222;21.246;2022-08-21T13:36:43;3.80;;;3.50;;
22660;SDS011;11497;52.222;21.246;2022-08-21T13:39:15;4.15;;;3.28;;
22660;SDS011;11497;52.222;21.246;2022-08-21T13:41:46;5.35;;;3.33;;
22660;SDS011;11497;52.222;21.246;2022-08-21T13:44:18;5.18;;;4.20;;
22660;SDS011;11497;52.222;21.246;2022-08-21T13:46:53;5.45;;;3.30;;
22660;SDS011;11497;52.222;21.246;2022-08-21T13:49:23;4.28;;;3.30;;
22660;SDS011;11497;52.222;21.246;2022-08-21T13:51:57;9.02;;;3.63;;
22660;SDS011;11497;52.222;21.246;2022-08-21T13:54:27;6.43;;;3.65;;
22660;SDS011;11497;52.222;21.246;2022-08-21T13:57:14;4.78;;;3.58;;
22660;SDS011;11497;52.222;21.246;2022-08-21T13:59:50;5.90;;;3.42;;
22660;SDS011;11497;52.222;21.246;2022-08-21T14:02:19;5.47;;;3.60;;
22660;SDS011;11497;52.222;21.246;2022-08-21T14:07:25;4.00;;;3.13;;
22660;SDS011;11497;52.222;21.246;2022-08-21T14:10:07;6.45;;;3.47;;
22660;SDS011;11497;52.222;21.246;2022-08-21T14:12:49;5.30;;;3.50;;
22660;SDS011;11497;52.222;21.246;2022-08-21T14:18:07;4.38;;;3.67;;
22660;SDS011;11497;52.222;21.246;2022-08-21T14:20:42;4.45;;;3.60;;
22660;SDS011;11497;52.222;21.246;2022-08-21T14:23:10;3.50;;;3.20;;
22660;SDS011;11497;52.222;21.246;2022-08-21T14:25:49;4.45;;;3.28;;
22660;SDS011;11497;52.222;21.246;2022-08-21T14:28:25;4.30;;;3.35;;
22660;SDS011;11497;52.222;21.246;2022-08-21T14:31:27;4.32;;;3.67;;
22660;SDS011;11497;52.222;21.246;2022-08-21T14:33:58;7.55;;;3.90;;
22660;SDS011;11497;52.222;21.246;2022-08-21T14:36:27;5.38;;;3.42;;
22660;SDS011;11497;52.222;21.246;2022-08-21T14:38:55;4.10;;;3.72;;
22660;SDS011;11497;52.222;21.246;2022-08-21T14:41:23;3.72;;;3.28;;
22660;SDS011;11497;52.222;21.246;2022-08-21T14:43:54;4.28;;;3.63;;
22660;SDS011;11497;52.222;21.246;2022-08-21T14:46:35;6.32;;;3.22;;
22660;SDS011;11497;52.222;21.246;2022-08-21T14:49:22;3.45;;;2.95;;
22660;SDS011;11497;52.222;21.246;2022-08-21T14:51:53;5.57;;;3.40;;
22660;SDS011;11497;52.222;21.246;2022-08-21T14:54:25;3.65;;;2.92;;
22660;SDS011;11497;52.222;21.246;2022-08-21T14:57:15;4.33;;;3.40;;
22660;SDS011;11497;52.222;21.246;2022-08-21T14:59:43;4.32;;;3.55;;
22660;SDS011;11497;52.222;21.246;2022-08-21T15:02:11;3.45;;;3.15;;
22660;SDS011;11497;52.222;21.246;2022-08-21T15:04:39;4.03;;;3.58;;
22660;SDS011;11497;52.222;21.246;2022-08-21T15:07:08;5.22;;;3.60;;
22660;SDS011;11497;52.222;21.246;2022-08-21T15:09:36;4.00;;;3.60;;
22660;SDS011;11497;52.222;21.246;2022-08-21T15:12:04;5.70;;;3.47;;
22660;SDS011;11497;52.222;21.246;2022-08-21T15:14:34;5.82;;;4.53;;
22660;SDS011;11497;52.222;21.246;2022-08-21T15:17:07;5.93;;;4.25;;
22660;SDS011;11497;52.222;21.246;2022-08-21T15:19:36;11.77;;;4.22;;
22660;SDS011;11497;52.222;21.246;2022-08-21T15:22:04;4.93;;;4.07;;
22660;SDS011;11497;52.222;21.246;2022-08-21T15:24:44;7.65;;;4.32;;
22660;SDS011;11497;52.222;21.246;2022-08-21T15:27:12;7.28;;;3.97;;
22660;SDS011;11497;52.222;21.246;2022-08-21T15:29:43;4.60;;;4.18;;
22660;SDS011;11497;52.222;21.246;2022-08-21T15:32:21;4.93;;;4.40;;
22660;SDS011;11497;52.222;21.246;2022-08-21T15:34:53;4.80;;;4.30;;
22660;SDS011;11497;52.222;21.246;2022-08-21T15:37:22;5.93;;;4.97;;
22660;SDS011;11497;52.222;21.246;2022-08-21T15:39:51;9.88;;;7.00;;
22660;SDS011;11497;52.222;21.246;2022-08-21T15:42:20;7.72;;;5.00;;
22660;SDS011;11497;52.222;21.246;2022-08-21T15:44:49;7.07;;;4.28;;
22660;SDS011;11497;52.222;21.246;2022-08-21T15:47:19;7.50;;;4.63;;
22660;SDS011;11497;52.222;21.246;2022-08-21T15:49:58;5.00;;;4.50;;
22660;SDS011;11497;52.222;21.246;2022-08-21T15:52:26;5.18;;;4.68;;
22660;SDS011;11497;52.222;21.246;2022-08-21T15:54:53;6.28;;;4.43;;
22660;SDS011;11497;52.222;21.246;2022-08-21T15:57:22;11.27;;;4.82;;
22660;SDS011;11497;52.222;21.246;2022-08-21T15:59:52;6.53;;;4.63;;
22660;SDS011;11497;52.222;21.246;2022-08-21T16:02:30;7.90;;;4.88;;
22660;SDS011;11497;52.222;21.246;2022-08-21T16:04:58;8.05;;;4.80;;
22660;SDS011;11497;52.222;21.246;2022-08-21T16:07:26;5.72;;;4.97;;
22660;SDS011;11497;52.222;21.246;2022-08-21T16:09:54;6.65;;;4.85;;
22660;SDS011;11497;52.222;21.246;2022-08-21T16:12:23;7.25;;;4.80;;
22660;SDS011;11497;52.222;21.246;2022-08-21T16:14:55;7.32;;;4.88;;
22660;SDS011;11497;52.222;21.246;2022-08-21T16:17:27;5.13;;;4.63;;
22660;SDS011;11497;52.222;21.246;2022-08-21T16:19:58;5.10;;;4.60;;
22660;SDS011;11497;52.222;21.246;2022-08-21T16:22:28;8.00;;;4.90;;
22660;SDS011;11497;52.222;21.246;2022-08-21T16:25:16;5.32;;;4.75;;
22660;SDS011;11497;52.222;21.246;2022-08-21T16:27:45;4.97;;;4.38;;
22660;SDS011;11497;52.222;21.246;2022-08-21T16:30:17;7.47;;;5.20;;
22660;SDS011;11497;52.222;21.246;2022-08-21T16:32:46;9.52;;;4.70;;
22660;SDS011;11497;52.222;21.246;2022-08-21T16:35:15;7.95;;;4.60;;